Time;durP1;ratioP1;P1;durP2;ratioP2;P2;SDS_P1;SDS_P2;PMS_P1;PMS_P2;Temp;Humidity;BMP_temperature;BMP_pressure;BME280_temperature;BME280_humidity;BME280_pressure;Samples;Min_cycle;Max_cycle;Signal;HPM_P1;HPM_P2
2022/10/21 00:00:20;;;;;;;10.33;5.80;;;20.00;88.90;;;;;;5009392;28;20205;-88
2022/10/21 00:02:49;;;;;;;11.87;6.43;;;20.00;89.40;;;;;;5024215;28;20200;-86
2022/10/21 00:05:17;;;;;;;11.67;6.30;;;20.00;90.10;;;;;;5012124;28;20825;-87
2022/10/21 00:07:44;;;;;;;13.67;6.10;;;20.00;90.00;;;;;;5008568;28;20209;-88
2022/10/21 00:10:11;;;;;;;15.50;7.60;;;20.00;89.80;;;;;;5008786;28;20667;-87
2022/10/21 00:12:38;;;;;;;11.80;5.60;;;19.90;90.00;;;;;;5021321;28;20260;-88
2022/10/21 00:15:07;;;;;;;10.87;5.87;;;19.90;90.10;;;;;;5019429;28;20205;-88
2022/10/21 00:17:36;;;;;;;11.87;6.20;;;20.00;90.30;;;;;;5017592;28;20228;-87
2022/10/21 00:20:06;;;;;;;13.53;6.03;;;19.90;90.40;;;;;;5021079;28;20235;-87
2022/10/21 00:22:33;;;;;;;14.27;6.50;;;19.90;90.90;;;;;;5021017;28;20208;-88
2022/10/21 00:25:00;;;;;;;18.40;7.73;;;19.90;90.30;;;;;;5024402;28;20303;-87
2022/10/21 00:27:27;;;;;;;14.90;6.73;;;19.90;90.50;;;;;;5011554;28;20235;-87
2022/10/21 00:29:54;;;;;;;19.97;8.23;;;19.90;90.80;;;;;;5024539;28;20193;-88
2022/10/21 00:32:21;;;;;;;15.10;6.03;;;19.90;90.50;;;;;;5008789;28;20209;-88
2022/10/21 00:34:48;;;;;;;18.47;5.87;;;19.90;90.40;;;;;;5008169;28;20233;-87
2022/10/21 00:37:17;;;;;;;13.50;6.27;;;19.90;90.60;;;;;;5007619;28;20316;-89
2022/10/21 00:39:44;;;;;;;12.07;5.90;;;19.90;90.80;;;;;;5009185;28;20212;-87
2022/10/21 00:42:16;;;;;;;12.03;6.10;;;19.90;90.60;;;;;;5020974;28;20258;-87
2022/10/21 00:44:43;;;;;;;11.93;5.80;;;19.80;90.90;;;;;;5021337;28;20215;-87
2022/10/21 00:47:17;;;;;;;11.57;5.43;;;19.90;90.60;;;;;;5008692;28;20303;-89
2022/10/21 00:49:49;;;;;;;11.47;6.00;;;19.90;91.00;;;;;;5013850;28;20281;-89
2022/10/21 00:52:23;;;;;;;9.57;4.97;;;19.90;91.00;;;;;;5018371;28;20709;-91
2022/10/21 00:54:53;;;;;;;11.30;5.40;;;19.80;91.00;;;;;;5008733;28;20248;-88
2022/10/21 00:57:24;;;;;;;17.77;7.03;;;19.80;90.90;;;;;;5015920;28;20322;-88
2022/10/21 00:59:54;;;;;;;10.53;5.40;;;19.80;90.70;;;;;;5025495;28;20216;-87
2022/10/21 01:02:21;;;;;;;8.60;5.00;;;19.80;90.70;;;;;;5019749;28;20252;-87
2022/10/21 01:04:53;;;;;;;12.23;6.13;;;19.70;90.40;;;;;;5020377;28;20258;-88
2022/10/21 01:07:22;;;;;;;9.63;5.13;;;19.70;90.50;;;;;;5022736;28;20212;-87
2022/10/21 01:09:49;;;;;;;10.20;4.73;;;19.70;90.50;;;;;;5036436;28;20227;-88
2022/10/21 01:12:25;;;;;;;9.40;4.63;;;19.60;90.30;;;;;;5018780;28;20210;-88
2022/10/21 01:14:56;;;;;;;10.57;4.90;;;19.70;90.50;;;;;;5018321;28;20208;-87
2022/10/21 01:17:38;;;;;;;17.17;6.53;;;19.60;90.30;;;;;;5023617;28;20259;-88
2022/10/21 01:20:44;;;;;;;12.87;5.23;;;19.60;90.30;;;;;;5040167;28;20249;-87
2022/10/21 01:23:39;;;;;;;7.43;3.77;;;19.60;90.20;;;;;;5036137;28;20267;-88
2022/10/21 01:26:41;;;;;;;7.23;3.43;;;19.60;90.00;;;;;;5023146;28;20204;-88
2022/10/21 01:29:40;;;;;;;8.03;3.73;;;19.50;90.00;;;;;;5032830;28;20208;-87
2022/10/21 01:32:16;;;;;;;10.77;4.73;;;19.50;89.70;;;;;;5027082;28;20273;-91
2022/10/21 01:34:52;;;;;;;9.00;4.23;;;19.50;90.10;;;;;;5026959;28;20228;-88
2022/10/21 01:37:25;;;;;;;11.70;4.67;;;19.50;89.10;;;;;;5028840;28;20278;-85
2022/10/21 01:39:57;;;;;;;8.50;3.37;;;19.40;89.30;;;;;;5047559;28;20243;-87
2022/10/21 01:42:31;;;;;;;8.53;4.07;;;19.40;89.00;;;;;;5029786;28;20277;-88
2022/10/21 01:45:08;;;;;;;6.63;3.33;;;19.40;89.10;;;;;;5031199;28;20229;-87
2022/10/21 01:47:43;;;;;;;8.33;3.37;;;19.40;89.20;;;;;;5038179;28;20261;-87
2022/10/21 01:50:14;;;;;;;10.20;4.67;;;19.40;89.20;;;;;;5031580;28;20732;-88
2022/10/21 01:52:47;;;;;;;10.07;3.97;;;19.40;89.10;;;;;;5029481;28;20208;-87
2022/10/21 01:55:19;;;;;;;21.60;6.07;;;19.30;88.80;;;;;;5022792;28;20572;-88
2022/10/21 01:57:51;;;;;;;10.73;4.47;;;19.30;88.70;;;;;;5011495;28;20319;-87
2022/10/21 02:00:19;;;;;;;15.70;5.43;;;19.30;88.70;;;;;;5013651;28;20283;-87
2022/10/21 02:02:49;;;;;;;10.53;4.43;;;19.30;88.60;;;;;;5014319;28;20289;-87
2022/10/21 02:05:23;;;;;;;10.40;4.33;;;19.30;88.50;;;;;;5017542;28;20205;-87
2022/10/21 02:07:50;;;;;;;15.40;4.43;;;19.30;88.40;;;;;;5014104;28;20638;-87
2022/10/21 02:10:18;;;;;;;12.83;4.50;;;19.20;88.00;;;;;;5025856;28;20757;-86
2022/10/21 02:12:50;;;;;;;16.53;5.70;;;19.20;88.20;;;;;;5019816;28;20290;-88
2022/10/21 02:15:19;;;;;;;9.60;4.07;;;19.20;89.00;;;;;;5032263;28;20216;-87
2022/10/21 02:17:54;;;;;;;11.43;4.10;;;19.20;88.20;;;;;;5019094;28;20224;-88
2022/10/21 02:20:24;;;;;;;10.90;4.37;;;19.10;88.20;;;;;;5031468;28;20279;-88
2022/10/21 02:22:52;;;;;;;11.20;4.27;;;19.10;88.00;;;;;;5026598;28;20219;-87
2022/10/21 02:25:25;;;;;;;12.00;4.10;;;19.10;88.00;;;;;;5027664;28;20557;-87
2022/10/21 02:27:53;;;;;;;7.23;3.23;;;19.00;88.10;;;;;;5014390;28;20577;-87
2022/10/21 02:30:20;;;;;;;7.33;3.33;;;19.00;88.10;;;;;;5013485;28;20283;-87
2022/10/21 02:32:56;;;;;;;8.63;3.67;;;19.00;88.10;;;;;;5012896;28;20204;-88
2022/10/21 02:35:31;;;;;;;11.23;4.10;;;19.00;88.20;;;;;;5011997;28;20766;-87
2022/10/21 02:38:03;;;;;;;8.97;3.13;;;19.00;88.20;;;;;;5012031;28;20250;-88
2022/10/21 02:40:36;;;;;;;13.03;4.60;;;19.00;88.10;;;;;;5011419;28;20208;-87
2022/10/21 02:43:09;;;;;;;9.83;3.60;;;18.90;88.00;;;;;;5020677;28;20242;-87
2022/10/21 02:45:36;;;;;;;9.17;3.37;;;18.90;88.00;;;;;;5029385;28;20282;-87
2022/10/21 02:48:05;;;;;;;7.77;3.23;;;18.90;87.80;;;;;;5029291;28;20737;-88
2022/10/21 02:50:32;;;;;;;8.53;3.43;;;18.90;87.90;;;;;;5030417;28;20215;-87
2022/10/21 02:52:59;;;;;;;9.60;3.87;;;18.80;87.80;;;;;;5027749;28;20234;-88
2022/10/21 02:55:26;;;;;;;8.23;3.57;;;18.80;87.60;;;;;;5012060;28;20286;-87
2022/10/21 02:57:53;;;;;;;18.10;6.40;;;18.80;87.50;;;;;;5011332;28;20800;-88
2022/10/21 03:00:20;;;;;;;9.90;3.80;;;18.80;87.50;;;;;;5023663;28;20208;-87
2022/10/21 03:02:47;;;;;;;11.90;4.30;;;18.80;87.70;;;;;;5012884;28;20841;-87
2022/10/21 03:05:17;;;;;;;7.70;3.30;;;18.80;87.50;;;;;;5015684;28;20232;-88
2022/10/21 03:07:44;;;;;;;10.20;4.10;;;18.80;87.50;;;;;;5013736;28;20209;-88
2022/10/21 03:10:11;;;;;;;10.57;4.23;;;18.70;87.50;;;;;;5025347;28;20208;-87
2022/10/21 03:12:43;;;;;;;13.23;4.73;;;18.70;87.60;;;;;;5032209;28;20307;-87
2022/10/21 03:15:10;;;;;;;7.50;3.43;;;18.70;87.90;;;;;;5007609;28;20237;-86
2022/10/21 03:17:38;;;;;;;7.77;3.00;;;18.60;87.70;;;;;;5011969;28;20881;-87
2022/10/21 03:20:05;;;;;;;11.40;4.50;;;18.60;87.60;;;;;;5025679;28;20238;-88
2022/10/21 03:22:34;;;;;;;11.03;3.87;;;18.60;87.80;;;;;;5009742;28;20203;-88
2022/10/21 03:25:05;;;;;;;10.17;3.90;;;18.60;88.00;;;;;;5013146;28;20211;-88
2022/10/21 03:27:32;;;;;;;8.53;3.93;;;18.60;87.70;;;;;;5011244;28;20212;-87
2022/10/21 03:29:59;;;;;;;13.00;5.17;;;18.60;88.00;;;;;;5012335;28;20212;-87
2022/10/21 03:32:26;;;;;;;13.13;3.87;;;18.50;87.80;;;;;;5039346;28;20195;-88
2022/10/21 03:34:54;;;;;;;9.63;3.90;;;18.50;87.70;;;;;;5022426;28;20314;-88
2022/10/21 03:37:21;;;;;;;10.33;4.03;;;18.50;88.00;;;;;;5016785;28;20221;-88
2022/10/21 03:39:50;;;;;;;12.43;4.33;;;18.50;87.80;;;;;;5019246;28;20619;-87
2022/10/21 03:42:19;;;;;;;9.57;3.70;;;18.50;88.10;;;;;;5030620;28;20202;-88
2022/10/21 03:44:46;;;;;;;11.90;4.00;;;18.50;88.00;;;;;;5015704;28;20655;-88
2022/10/21 03:47:13;;;;;;;9.60;3.83;;;18.50;88.10;;;;;;5016784;28;20210;-87
2022/10/21 03:49:41;;;;;;;12.83;4.73;;;18.50;88.00;;;;;;5018800;28;20207;-86
2022/10/21 03:52:08;;;;;;;9.60;3.80;;;18.40;88.00;;;;;;5011463;28;20206;-87
2022/10/21 03:54:35;;;;;;;9.50;3.43;;;18.40;87.90;;;;;;5010554;28;20208;-87
2022/10/21 03:57:03;;;;;;;12.10;4.73;;;18.30;88.10;;;;;;5011814;28;20212;-87
2022/10/21 03:59:32;;;;;;;10.37;4.03;;;18.30;88.30;;;;;;5013413;28;20262;-89
2022/10/21 04:01:59;;;;;;;6.83;3.07;;;18.30;88.60;;;;;;5023143;28;20206;-88
2022/10/21 04:04:26;;;;;;;8.63;3.60;;;18.30;88.40;;;;;;5028100;28;20208;-88
2022/10/21 04:06:53;;;;;;;9.20;3.83;;;18.30;88.70;;;;;;5018913;28;20203;-88
2022/10/21 04:09:20;;;;;;;10.53;3.37;;;18.30;88.70;;;;;;5008828;28;20275;-88
2022/10/21 04:11:47;;;;;;;8.70;3.57;;;18.30;88.60;;;;;;5019341;28;20204;-87
2022/10/21 04:14:16;;;;;;;10.67;3.90;;;18.20;88.60;;;;;;5011369;28;20213;-88
2022/10/21 04:16:43;;;;;;;10.87;3.90;;;18.20;88.70;;;;;;5023189;28;20210;-88
2022/10/21 04:19:17;;;;;;;8.27;3.43;;;18.20;88.60;;;;;;5040126;28;20249;-88
2022/10/21 04:21:44;;;;;;;12.63;4.77;;;18.20;89.00;;;;;;5030740;28;20654;-87
2022/10/21 04:24:11;;;;;;;8.63;3.60;;;18.20;88.60;;;;;;5018115;28;20213;-88
2022/10/21 04:26:38;;;;;;;8.87;3.30;;;18.20;88.60;;;;;;5008489;28;21023;-87
2022/10/21 04:29:07;;;;;;;8.50;3.83;;;18.20;88.80;;;;;;5023832;28;20262;-89
2022/10/21 04:31:36;;;;;;;7.07;3.40;;;18.20;89.10;;;;;;5023893;28;20202;-87
2022/10/21 04:34:03;;;;;;;10.97;3.70;;;18.20;89.00;;;;;;5029752;28;20750;-88
2022/10/21 04:36:30;;;;;;;10.50;3.97;;;18.10;88.70;;;;;;5026752;28;20296;-87
2022/10/21 04:38:58;;;;;;;9.43;4.03;;;18.10;88.90;;;;;;5020085;28;20323;-87
2022/10/21 04:41:25;;;;;;;10.43;3.67;;;18.10;89.20;;;;;;5022053;28;20203;-88
2022/10/21 04:43:52;;;;;;;9.83;3.70;;;18.10;89.10;;;;;;5020273;28;20302;-88
2022/10/21 04:46:20;;;;;;;7.63;3.70;;;18.10;89.20;;;;;;5008268;28;20287;-88
2022/10/21 04:48:48;;;;;;;10.23;3.67;;;18.10;89.50;;;;;;5013018;28;20209;-87
2022/10/21 04:51:15;;;;;;;9.33;3.67;;;18.10;89.80;;;;;;5015336;28;20207;-88
2022/10/21 04:53:42;;;;;;;9.37;3.90;;;18.10;89.80;;;;;;5013278;28;20210;-88
2022/10/21 04:56:09;;;;;;;16.00;5.87;;;18.10;89.90;;;;;;5026676;28;20299;-87
2022/10/21 04:58:36;;;;;;;8.57;3.90;;;18.10;90.00;;;;;;5014663;28;20977;-88
2022/10/21 05:01:03;;;;;;;17.37;6.27;;;18.10;90.30;;;;;;5019473;28;20206;-87
2022/10/21 05:03:30;;;;;;;21.27;7.07;;;18.10;90.00;;;;;;5017520;28;20205;-88
2022/10/21 05:05:58;;;;;;;11.77;4.53;;;18.10;90.10;;;;;;5010567;28;20672;-88
2022/10/21 05:08:25;;;;;;;18.23;6.23;;;18.10;90.20;;;;;;5013630;28;20235;-88
2022/10/21 05:10:59;;;;;;;10.30;4.37;;;18.10;90.10;;;;;;5024114;28;20322;-88
2022/10/21 05:13:26;;;;;;;13.87;4.97;;;18.10;90.30;;;;;;5013054;28;20213;-88
2022/10/21 05:16:00;;;;;;;9.20;4.07;;;18.10;90.20;;;;;;5017055;28;20265;-88
2022/10/21 05:18:29;;;;;;;11.93;5.00;;;18.10;90.20;;;;;;5012637;28;20299;-88
2022/10/21 05:20:58;;;;;;;11.67;3.83;;;18.10;90.30;;;;;;5030484;28;20208;-87
2022/10/21 05:23:26;;;;;;;11.43;4.37;;;18.10;90.30;;;;;;5031774;28;20680;-88
2022/10/21 05:25:53;;;;;;;10.40;4.03;;;18.10;90.30;;;;;;5030839;28;20390;-88
2022/10/21 05:28:21;;;;;;;12.57;4.50;;;18.10;90.20;;;;;;5011266;28;20217;-88
2022/10/21 05:30:49;;;;;;;11.50;3.87;;;18.10;90.20;;;;;;5016258;28;20313;-87
2022/10/21 05:33:17;;;;;;;12.20;4.93;;;18.20;90.20;;;;;;5012982;28;20210;-87
2022/10/21 05:35:44;;;;;;;16.67;5.53;;;18.20;90.10;;;;;;5009843;28;20587;-88
2022/10/21 05:38:13;;;;;;;11.83;4.57;;;18.20;90.20;;;;;;5024730;28;20231;-90
2022/10/21 05:40:40;;;;;;;13.93;5.50;;;18.20;90.20;;;;;;5010182;28;21097;-87
2022/10/21 05:43:07;;;;;;;14.73;5.00;;;18.20;90.00;;;;;;5022061;28;20203;-88
2022/10/21 05:45:34;;;;;;;11.83;4.30;;;18.20;90.00;;;;;;5030158;28;20216;-88
2022/10/21 05:48:01;;;;;;;10.03;4.30;;;18.20;90.00;;;;;;5021494;28;20206;-88
2022/10/21 05:50:28;;;;;;;8.53;4.07;;;18.20;90.00;;;;;;5024813;28;20207;-88
2022/10/21 05:52:57;;;;;;;9.90;4.17;;;18.20;90.00;;;;;;5024287;28;20206;-88
2022/10/21 05:55:30;;;;;;;12.63;4.07;;;18.20;90.00;;;;;;5036005;28;20199;-88
2022/10/21 05:57:57;;;;;;;12.73;5.23;;;18.20;90.00;;;;;;5025596;28;20238;-88
2022/10/21 06:00:23;;;;;;;10.47;4.40;;;18.20;89.80;;;;;;5021224;28;20705;-88
2022/10/21 06:02:50;;;;;;;14.80;5.53;;;18.20;89.70;;;;;;5018379;28;20245;-88
2022/10/21 06:05:18;;;;;;;14.17;5.50;;;18.10;90.10;;;;;;5012775;28;20199;-88
2022/10/21 06:07:47;;;;;;;16.90;6.37;;;18.20;89.80;;;;;;5017842;28;20299;-88
2022/10/21 06:10:15;;;;;;;10.37;4.80;;;18.10;89.40;;;;;;5013606;28;20214;-88
2022/10/21 06:12:44;;;;;;;11.20;4.50;;;18.10;89.40;;;;;;5014305;28;20203;-88
2022/10/21 06:15:11;;;;;;;10.80;4.63;;;18.10;89.40;;;;;;5015732;28;20223;-89
2022/10/21 06:17:40;;;;;;;16.27;5.90;;;18.10;89.30;;;;;;5029728;28;20241;-90
2022/10/21 06:20:07;;;;;;;17.57;5.87;;;18.10;89.30;;;;;;5019523;28;20248;-90
2022/10/21 06:22:37;;;;;;;10.40;3.97;;;18.10;89.40;;;;;;5029293;28;20205;-90
2022/10/21 06:25:05;;;;;;;12.53;4.70;;;18.10;89.40;;;;;;5019421;28;20214;-90
2022/10/21 06:27:32;;;;;;;12.13;4.77;;;18.00;89.40;;;;;;5020470;28;20242;-89
2022/10/21 06:30:00;;;;;;;17.27;6.13;;;18.00;89.40;;;;;;5011370;28;20219;-89
2022/10/21 06:32:27;;;;;;;9.13;4.37;;;18.00;89.50;;;;;;5018482;28;20233;-89
2022/10/21 06:34:54;;;;;;;11.70;4.57;;;18.00;89.40;;;;;;5022037;28;20235;-89
2022/10/21 06:37:21;;;;;;;13.10;4.80;;;18.00;89.20;;;;;;5019360;28;20586;-90
2022/10/21 06:39:49;;;;;;;15.90;5.83;;;18.00;89.20;;;;;;5010123;28;20215;-89
2022/10/21 06:42:16;;;;;;;14.60;5.20;;;18.00;89.20;;;;;;5010390;28;20212;-89
2022/10/21 06:44:43;;;;;;;8.63;4.37;;;17.90;89.30;;;;;;5016297;28;20315;-90
2022/10/21 06:47:13;;;;;;;11.43;4.77;;;18.00;89.60;;;;;;5014919;28;22012;-90
2022/10/21 06:49:40;;;;;;;16.73;6.27;;;17.90;89.50;;;;;;5027119;28;20405;-89
2022/10/21 06:52:06;;;;;;;13.20;5.03;;;17.90;89.60;;;;;;5019849;28;20285;-89
2022/10/21 06:54:36;;;;;;;14.00;5.63;;;17.90;89.60;;;;;;5031619;28;20289;-90
2022/10/21 06:57:03;;;;;;;12.17;4.67;;;17.90;89.70;;;;;;5025395;28;20202;-89
2022/10/21 06:59:31;;;;;;;10.70;4.87;;;17.90;89.80;;;;;;5030218;28;20253;-89
2022/10/21 07:01:58;;;;;;;12.97;5.80;;;17.90;90.00;;;;;;5009843;28;20203;-88
2022/10/21 07:04:27;;;;;;;18.33;6.53;;;17.90;90.00;;;;;;5026999;28;20317;-87
2022/10/21 07:06:54;;;;;;;14.27;5.87;;;17.90;90.40;;;;;;5026058;28;20253;-89
2022/10/21 07:09:22;;;;;;;15.07;5.13;;;17.90;90.70;;;;;;5018854;28;20239;-88
2022/10/21 07:11:49;;;;;;;13.73;5.10;;;17.90;90.60;;;;;;5011235;28;20702;-88
2022/10/21 07:14:16;;;;;;;11.40;5.03;;;17.90;90.80;;;;;;5013620;28;20269;-88
2022/10/21 07:16:43;;;;;;;14.47;5.13;;;17.90;91.10;;;;;;5018898;28;20248;-88
2022/10/21 07:19:10;;;;;;;19.10;5.93;;;17.90;91.20;;;;;;5019155;28;20263;-88
2022/10/21 07:21:39;;;;;;;20.70;7.33;;;17.90;91.40;;;;;;5030027;28;20332;-89
2022/10/21 07:24:06;;;;;;;11.03;4.50;;;17.90;91.60;;;;;;5034575;28;20290;-88
2022/10/21 07:26:34;;;;;;;17.77;6.07;;;17.90;91.60;;;;;;5033091;28;20289;-89
2022/10/21 07:29:02;;;;;;;14.80;4.93;;;17.90;91.80;;;;;;5035820;28;20211;-89
2022/10/21 07:31:32;;;;;;;11.07;4.67;;;17.90;91.80;;;;;;5034925;28;20211;-89
2022/10/21 07:34:01;;;;;;;12.73;4.77;;;17.90;92.10;;;;;;5035869;28;20281;-88
2022/10/21 07:36:30;;;;;;;10.03;4.60;;;17.90;92.10;;;;;;5040529;28;20233;-88
2022/10/21 07:39:02;;;;;;;11.73;4.70;;;18.00;92.30;;;;;;5032674;28;20298;-88
2022/10/21 07:41:31;;;;;;;12.63;5.23;;;18.00;92.50;;;;;;5037164;28;20212;-87
2022/10/21 07:43:59;;;;;;;14.17;4.73;;;18.00;92.40;;;;;;5034694;28;20270;-89
2022/10/21 07:46:27;;;;;;;16.43;6.00;;;18.10;92.30;;;;;;5028615;28;20203;-87
2022/10/21 07:48:54;;;;;;;19.67;6.77;;;18.10;92.40;;;;;;5033766;28;20674;-87
2022/10/21 07:51:23;;;;;;;13.07;6.23;;;18.10;92.40;;;;;;5039224;28;20265;-89
2022/10/21 07:53:52;;;;;;;20.90;7.07;;;18.20;92.60;;;;;;5035813;28;20218;-90
2022/10/21 07:56:22;;;;;;;13.67;4.77;;;18.20;92.50;;;;;;5034693;28;20265;-89
2022/10/21 07:58:50;;;;;;;11.97;4.97;;;18.20;92.70;;;;;;5033541;28;20219;-88
2022/10/21 08:01:18;;;;;;;10.10;4.10;;;18.30;92.60;;;;;;5029772;28;20659;-88
2022/10/21 08:03:46;;;;;;;11.47;4.23;;;18.30;92.70;;;;;;5025497;28;20209;-89
2022/10/21 08:06:14;;;;;;;10.27;4.50;;;18.30;92.60;;;;;;5038706;28;20729;-89
2022/10/21 08:08:46;;;;;;;13.50;5.97;;;18.40;92.80;;;;;;5038007;28;20276;-96
2022/10/21 08:11:22;;;;;;;17.97;6.30;;;18.40;93.00;;;;;;5034839;28;20235;-88
2022/10/21 08:13:49;;;;;;;12.37;3.97;;;18.50;93.10;;;;;;5042548;28;20213;-89
2022/10/21 08:16:16;;;;;;;14.30;5.17;;;18.50;92.90;;;;;;5036215;28;20218;-90
2022/10/21 08:18:43;;;;;;;10.47;4.13;;;18.50;92.90;;;;;;5033598;28;21012;-90
2022/10/21 08:21:11;;;;;;;16.40;6.27;;;18.60;92.80;;;;;;5043242;28;20224;-89
2022/10/21 08:23:39;;;;;;;11.50;4.10;;;18.60;93.00;;;;;;5021168;28;20201;-90
2022/10/21 08:26:10;;;;;;;14.43;4.67;;;18.70;93.00;;;;;;5033269;28;21657;-89
2022/10/21 08:28:38;;;;;;;13.10;5.80;;;18.70;93.00;;;;;;5040675;28;20206;-92
2022/10/21 08:31:07;;;;;;;11.63;4.27;;;18.80;92.90;;;;;;5040898;28;20204;-91
2022/10/21 08:33:38;;;;;;;10.90;3.93;;;18.80;92.80;;;;;;5040752;28;20240;-90
2022/10/21 08:36:06;;;;;;;15.33;6.07;;;18.80;92.80;;;;;;5036015;28;20205;-89
2022/10/21 08:38:34;;;;;;;14.67;3.93;;;19.00;93.00;;;;;;5018417;28;20199;-91
2022/10/21 08:41:01;;;;;;;8.73;3.83;;;19.00;92.90;;;;;;5027528;28;20776;-88
2022/10/21 08:43:33;;;;;;;17.40;5.47;;;19.00;92.90;;;;;;5037686;28;20236;-90
2022/10/21 08:46:06;;;;;;;10.70;4.67;;;19.10;93.00;;;;;;5030388;28;20318;-91
2022/10/21 08:48:38;;;;;;;9.30;3.73;;;19.20;92.90;;;;;;5034000;28;20219;-90
2022/10/21 08:51:07;;;;;;;10.23;4.30;;;19.20;92.80;;;;;;5039681;28;20212;-89
2022/10/21 08:53:39;;;;;;;25.13;8.30;;;19.30;92.70;;;;;;5032254;28;20291;-89
2022/10/21 08:56:10;;;;;;;8.60;3.80;;;19.30;92.60;;;;;;5022331;28;20207;-89
2022/10/21 08:58:37;;;;;;;13.97;4.80;;;19.40;92.50;;;;;;5035962;28;20717;-88
2022/10/21 09:01:19;;;;;;;18.53;5.87;;;19.50;92.30;;;;;;5028572;28;20343;-91
2022/10/21 09:03:53;;;;;;;8.93;4.40;;;19.50;92.40;;;;;;5019086;28;20246;-90
2022/10/21 09:06:23;;;;;;;12.80;5.00;;;19.60;92.10;;;;;;5022497;28;20548;-88
2022/10/21 09:08:59;;;;;;;11.03;4.27;;;19.60;92.00;;;;;;5026684;28;20727;-89
2022/10/21 09:11:54;;;;;;;9.40;3.63;;;19.60;92.10;;;;;;5023022;28;20304;-95
2022/10/21 09:14:47;;;;;;;11.43;4.50;;;19.70;91.90;;;;;;5018872;28;20205;-90
2022/10/21 09:17:44;;;;;;;11.47;4.27;;;19.70;91.90;;;;;;5007977;28;20292;-91
2022/10/21 09:20:26;;;;;;;10.57;4.20;;;19.80;92.00;;;;;;5008657;28;20237;-89
2022/10/21 09:23:01;;;;;;;11.13;4.77;;;19.80;92.40;;;;;;5008563;28;20236;-88
2022/10/21 09:25:33;;;;;;;13.90;4.93;;;19.90;92.50;;;;;;5026474;28;20283;-87
2022/10/21 09:28:08;;;;;;;9.87;4.07;;;20.00;92.20;;;;;;5028938;28;20852;-87
2022/10/21 09:30:38;;;;;;;10.90;4.40;;;20.10;91.90;;;;;;5012005;28;20237;-87
2022/10/21 09:33:14;;;;;;;13.33;5.00;;;20.20;91.80;;;;;;5025681;28;20315;-87
2022/10/21 09:35:47;;;;;;;10.77;3.90;;;20.30;91.70;;;;;;5008530;28;20634;-88
2022/10/21 09:38:19;;;;;;;10.80;4.47;;;20.40;91.40;;;;;;5009423;28;20209;-92
2022/10/21 09:40:49;;;;;;;10.47;4.00;;;20.50;91.20;;;;;;5029780;28;20300;-88
2022/10/21 09:43:20;;;;;;;12.77;5.57;;;20.60;90.80;;;;;;5033550;28;20207;-88
2022/10/21 09:45:47;;;;;;;8.87;4.13;;;20.70;90.90;;;;;;5018743;28;20279;-88
2022/10/21 09:48:28;;;;;;;9.37;3.93;;;20.70;90.50;;;;;;5030819;28;20224;-89
2022/10/21 09:50:59;;;;;;;11.23;4.17;;;20.80;90.20;;;;;;5036835;28;20327;-88
2022/10/21 09:53:32;;;;;;;17.43;5.83;;;20.90;89.60;;;;;;5031766;28;20228;-89
2022/10/21 09:56:03;;;;;;;9.00;3.73;;;20.90;90.00;;;;;;5017898;28;20290;-92
2022/10/21 09:58:45;;;;;;;9.67;4.30;;;21.00;89.50;;;;;;5020354;28;20252;-89
2022/10/21 10:01:19;;;;;;;8.10;4.30;;;21.00;89.00;;;;;;5028004;28;20237;-89
2022/10/21 10:03:50;;;;;;;10.83;4.03;;;21.10;89.20;;;;;;5010323;28;20731;-89
2022/10/21 10:06:32;;;;;;;9.07;4.07;;;21.20;90.20;;;;;;5031952;28;20288;-87
2022/10/21 10:09:14;;;;;;;12.83;5.07;;;21.20;89.90;;;;;;5011285;28;20205;-88
2022/10/21 10:11:53;;;;;;;14.37;3.77;;;21.30;88.70;;;;;;5017701;28;20650;-88
2022/10/21 10:14:33;;;;;;;12.67;4.67;;;21.40;88.10;;;;;;5030675;28;20297;-88
2022/10/21 10:17:19;;;;;;;9.03;3.90;;;21.50;87.40;;;;;;5012064;28;20205;-87
2022/10/21 10:20:11;;;;;;;12.83;4.30;;;21.60;86.20;;;;;;5011052;28;20230;-90
2022/10/21 10:22:41;;;;;;;15.10;5.20;;;21.70;84.50;;;;;;5016241;28;20319;-88
2022/10/21 10:25:17;;;;;;;10.87;3.33;;;21.80;84.50;;;;;;5024245;28;20257;-90
2022/10/21 10:27:48;;;;;;;12.23;5.27;;;21.80;84.10;;;;;;5011025;28;20212;-89
2022/10/21 10:30:16;;;;;;;8.87;3.43;;;21.80;83.00;;;;;;5014107;28;20282;-87
2022/10/21 10:32:47;;;;;;;7.03;3.20;;;21.80;83.20;;;;;;5035849;28;20229;-96
2022/10/21 10:35:35;;;;;;;8.30;3.77;;;21.90;83.50;;;;;;5014413;28;20216;-93
2022/10/21 10:38:04;;;;;;;9.73;3.80;;;21.90;83.10;;;;;;5018692;28;20211;-90
2022/10/21 10:40:40;;;;;;;12.87;3.70;;;21.90;83.50;;;;;;5024498;28;20228;-91
2022/10/21 10:43:20;;;;;;;15.07;5.40;;;21.90;82.70;;;;;;5035307;28;20852;-88
2022/10/21 10:45:57;;;;;;;10.53;4.17;;;22.00;82.80;;;;;;5029886;28;20302;-89
2022/10/21 10:48:40;;;;;;;12.97;4.43;;;22.00;82.90;;;;;;5036828;28;20644;-88
2022/10/21 10:51:25;;;;;;;6.83;3.10;;;22.10;82.70;;;;;;5035327;28;20208;-91
2022/10/21 10:54:01;;;;;;;10.23;3.90;;;22.10;82.40;;;;;;5040503;28;20229;-89
2022/10/21 10:59:32;;;;;;;16.83;6.17;;;22.20;81.60;;;;;;5032461;28;20242;-89
2022/10/21 11:02:15;;;;;;;8.10;3.73;;;22.30;82.60;;;;;;5034513;28;20268;-91
2022/10/21 11:04:49;;;;;;;16.57;5.90;;;22.30;82.60;;;;;;5040525;28;20205;-88
2022/10/21 11:07:29;;;;;;;15.43;5.67;;;22.40;83.20;;;;;;5030297;28;20210;-96
2022/10/21 11:10:03;;;;;;;10.13;3.47;;;22.50;82.10;;;;;;5038410;28;20297;-89
2022/10/21 11:12:30;;;;;;;7.33;3.10;;;22.60;82.20;;;;;;5032973;28;20270;-88
2022/10/21 11:14:59;;;;;;;8.07;4.00;;;22.70;82.20;;;;;;5038856;28;20216;-92
2022/10/21 11:17:34;;;;;;;9.13;3.43;;;22.80;82.50;;;;;;5036892;28;20893;-89
2022/10/21 11:20:13;;;;;;;7.33;3.53;;;23.00;81.20;;;;;;5037177;28;20301;-90
2022/10/21 11:22:55;;;;;;;8.60;3.30;;;23.10;79.90;;;;;;5036215;28;20257;-95
2022/10/21 11:25:26;;;;;;;11.70;4.40;;;23.30;79.90;;;;;;5024358;28;20256;-90
2022/10/21 11:28:03;;;;;;;9.07;3.40;;;23.40;80.00;;;;;;5037165;28;20680;-93
2022/10/21 11:30:49;;;;;;;9.60;3.90;;;23.60;77.90;;;;;;5013864;28;20303;-91
2022/10/21 11:33:24;;;;;;;10.13;3.13;;;23.70;77.20;;;;;;5019267;28;20641;-90
2022/10/21 11:35:58;;;;;;;7.60;2.97;;;23.80;76.40;;;;;;5018572;28;20262;-92
2022/10/21 11:38:53;;;;;;;5.77;2.53;;;24.00;76.80;;;;;;5017353;28;20232;-90
2022/10/21 11:41:30;;;;;;;11.10;4.40;;;24.10;75.30;;;;;;5019555;28;20280;-95
2022/10/21 11:44:09;;;;;;;7.90;2.57;;;24.30;74.40;;;;;;5039267;28;21109;-93
2022/10/21 11:46:52;;;;;;;16.57;6.17;;;24.40;73.80;;;;;;5028850;28;20198;-93
2022/10/21 11:49:35;;;;;;;8.70;3.23;;;24.50;72.80;;;;;;5037031;28;20284;-90
2022/10/21 11:52:15;;;;;;;6.00;2.90;;;24.60;73.00;;;;;;5041387;28;20607;-95
2022/10/21 11:55:08;;;;;;;6.83;2.90;;;24.70;73.10;;;;;;5026531;28;20201;-94
2022/10/21 11:57:46;;;;;;;6.60;3.03;;;24.80;73.00;;;;;;5018144;28;20216;-94
2022/10/21 12:00:17;;;;;;;8.67;3.37;;;24.90;73.10;;;;;;5027220;28;20341;-92
2022/10/21 12:02:46;;;;;;;10.07;3.30;;;25.10;72.80;;;;;;5013398;28;20267;-94
2022/10/21 12:05:28;;;;;;;8.23;3.50;;;25.20;72.20;;;;;;5013573;28;20266;-89
2022/10/21 12:08:10;;;;;;;8.40;3.67;;;25.20;70.70;;;;;;5012184;28;20238;-93
2022/10/21 12:10:48;;;;;;;5.07;2.43;;;25.30;70.20;;;;;;5014498;28;20205;-95
2022/10/21 12:13:33;;;;;;;6.70;3.07;;;25.40;70.20;;;;;;5015882;28;20980;-94
2022/10/21 12:16:04;;;;;;;5.80;2.33;;;25.50;69.40;;;;;;5028119;28;20758;-90
2022/10/21 12:18:37;;;;;;;6.73;2.33;;;25.50;69.50;;;;;;5022464;28;20233;-93
2022/10/21 12:21:06;;;;;;;7.17;2.73;;;25.60;69.30;;;;;;5025241;28;20303;-94
2022/10/21 12:23:34;;;;;;;7.07;2.97;;;25.70;69.80;;;;;;5016834;28;20213;-89
2022/10/21 12:26:14;;;;;;;5.33;2.43;;;25.80;69.10;;;;;;5030681;28;20237;-91
2022/10/21 12:28:46;;;;;;;5.90;2.37;;;25.90;67.60;;;;;;5015727;28;20293;-92
2022/10/21 12:31:35;;;;;;;7.43;2.73;;;26.00;68.00;;;;;;5014161;28;20221;-90
2022/10/21 12:34:05;;;;;;;10.10;3.87;;;26.10;68.20;;;;;;5026702;28;20231;-91
2022/10/21 12:36:41;;;;;;;5.60;2.80;;;26.20;67.80;;;;;;5032920;28;20268;-95
2022/10/21 12:39:16;;;;;;;9.73;3.53;;;26.30;66.50;;;;;;5037647;28;20204;-90
2022/10/21 12:41:48;;;;;;;4.83;2.13;;;26.40;66.10;;;;;;5030267;28;20232;-92
2022/10/21 12:44:27;;;;;;;8.27;3.27;;;26.50;66.10;;;;;;5019126;28;20229;-92
2022/10/21 12:47:26;;;;;;;7.07;2.50;;;26.50;64.60;;;;;;5021134;28;20249;-95
2022/10/21 12:50:28;;;;;;;6.23;2.67;;;26.70;64.20;;;;;;5021615;28;20201;-89
2022/10/21 12:53:16;;;;;;;8.07;2.43;;;26.70;64.00;;;;;;5014281;28;20292;-95
2022/10/21 12:55:49;;;;;;;6.97;2.90;;;26.80;63.20;;;;;;5023882;28;20219;-91
2022/10/21 12:58:30;;;;;;;4.20;1.80;;;26.90;63.50;;;;;;5020360;28;21024;-92
2022/10/21 13:00:59;;;;;;;4.93;2.50;;;27.00;62.80;;;;;;5029259;28;20594;-93
2022/10/21 13:03:49;;;;;;;8.57;2.60;;;27.00;63.60;;;;;;5025889;28;20283;-90
2022/10/21 13:06:52;;;;;;;6.63;2.47;;;27.10;62.90;;;;;;5034447;28;20209;-89